sensor_id;sensor_type;location;lat;lon;timestamp;P1;durP1;ratioP1;P2;durP2;ratioP2
37777;SDS011;23615;51.506;7.678;2023-05-14T00:01:48;7.30;;;6.67;;
37777;SDS011;23615;51.506;7.678;2023-05-14T00:04:15;9.30;;;8.35;;
37777;SDS011;23615;51.506;7.678;2023-05-14T00:06:41;7.80;;;7.10;;
37777;SDS011;23615;51.506;7.678;2023-05-14T00:09:07;6.93;;;6.23;;
37777;SDS011;23615;51.506;7.678;2023-05-14T00:11:32;6.67;;;6.07;;
37777;SDS011;23615;51.506;7.678;2023-05-14T00:13:57;6.20;;;5.70;;
37777;SDS011;23615;51.506;7.678;2023-05-14T00:16:23;6.43;;;5.83;;
37777;SDS011;23615;51.506;7.678;2023-05-14T00:18:48;5.77;;;5.17;;
37777;SDS011;23615;51.506;7.678;2023-05-14T00:21:13;5.77;;;5.27;;
37777;SDS011;23615;51.506;7.678;2023-05-14T00:23:38;7.90;;;7.17;;
37777;SDS011;23615;51.506;7.678;2023-05-14T00:26:04;7.80;;;7.13;;
37777;SDS011;23615;51.506;7.678;2023-05-14T00:28:29;6.73;;;6.13;;
37777;SDS011;23615;51.506;7.678;2023-05-14T00:30:54;6.83;;;6.20;;
37777;SDS011;23615;51.506;7.678;2023-05-14T00:33:21;6.70;;;6.18;;
37777;SDS011;23615;51.506;7.678;2023-05-14T00:35:47;6.40;;;5.80;;
37777;SDS011;23615;51.506;7.678;2023-05-14T00:38:13;8.90;;;8.10;;
37777;SDS011;23615;51.506;7.678;2023-05-14T00:40:41;8.20;;;7.40;;
37777;SDS011;23615;51.506;7.678;2023-05-14T00:43:09;7.50;;;6.80;;
37777;SDS011;23615;51.506;7.678;2023-05-14T00:45:35;6.22;;;5.57;;
37777;SDS011;23615;51.506;7.678;2023-05-14T00:48:01;5.77;;;5.27;;
37777;SDS011;23615;51.506;7.678;2023-05-14T00:50:26;6.67;;;6.07;;
37777;SDS011;23615;51.506;7.678;2023-05-14T00:52:52;6.40;;;5.90;;
37777;SDS011;23615;51.506;7.678;2023-05-14T00:55:17;6.45;;;5.93;;
37777;SDS011;23615;51.506;7.678;2023-05-14T00:57:43;6.93;;;6.33;;
37777;SDS011;23615;51.506;7.678;2023-05-14T01:00:08;6.50;;;5.93;;
37777;SDS011;23615;51.506;7.678;2023-05-14T01:02:34;6.93;;;6.32;;
37777;SDS011;23615;51.506;7.678;2023-05-14T01:05:00;6.10;;;5.60;;
37777;SDS011;23615;51.506;7.678;2023-05-14T01:07:32;5.97;;;5.57;;
37777;SDS011;23615;51.506;7.678;2023-05-14T01:10:10;8.30;;;7.50;;
37777;SDS011;23615;51.506;7.678;2023-05-14T01:15:20;6.72;;;6.13;;
37777;SDS011;23615;51.506;7.678;2023-05-14T01:17:53;6.55;;;6.05;;
37777;SDS011;23615;51.506;7.678;2023-05-14T01:20:22;5.77;;;5.30;;
37777;SDS011;23615;51.506;7.678;2023-05-14T01:22:47;6.35;;;5.80;;
37777;SDS011;23615;51.506;7.678;2023-05-14T01:25:12;8.80;;;7.90;;
37777;SDS011;23615;51.506;7.678;2023-05-14T01:30:28;6.75;;;6.18;;
37777;SDS011;23615;51.506;7.678;2023-05-14T01:32:59;7.28;;;6.68;;
37777;SDS011;23615;51.506;7.678;2023-05-14T01:35:28;7.22;;;6.53;;
37777;SDS011;23615;51.506;7.678;2023-05-14T01:37:55;7.00;;;6.40;;
37777;SDS011;23615;51.506;7.678;2023-05-14T01:40:22;8.98;;;8.02;;
37777;SDS011;23615;51.506;7.678;2023-05-14T01:42:49;8.95;;;8.15;;
37777;SDS011;23615;51.506;7.678;2023-05-14T01:45:16;7.80;;;7.10;;
37777;SDS011;23615;51.506;7.678;2023-05-14T01:47:41;7.57;;;6.87;;
37777;SDS011;23615;51.506;7.678;2023-05-14T01:50:07;7.07;;;6.43;;
37777;SDS011;23615;51.506;7.678;2023-05-14T01:52:32;6.70;;;6.10;;
37777;SDS011;23615;51.506;7.678;2023-05-14T01:54:58;6.80;;;6.20;;
37777;SDS011;23615;51.506;7.678;2023-05-14T01:57:24;8.13;;;7.32;;
37777;SDS011;23615;51.506;7.678;2023-05-14T01:59:49;9.15;;;8.18;;
37777;SDS011;23615;51.506;7.678;2023-05-14T02:02:14;9.40;;;8.40;;
37777;SDS011;23615;51.506;7.678;2023-05-14T02:04:40;8.00;;;7.30;;
37777;SDS011;23615;51.506;7.678;2023-05-14T02:07:05;7.73;;;7.07;;
37777;SDS011;23615;51.506;7.678;2023-05-14T02:09:30;6.70;;;6.10;;
37777;SDS011;23615;51.506;7.678;2023-05-14T02:11:56;6.60;;;6.00;;
37777;SDS011;23615;51.506;7.678;2023-05-14T02:14:21;6.37;;;5.77;;
37777;SDS011;23615;51.506;7.678;2023-05-14T02:16:46;7.03;;;6.43;;
37777;SDS011;23615;51.506;7.678;2023-05-14T02:19:11;6.45;;;5.95;;
37777;SDS011;23615;51.506;7.678;2023-05-14T02:21:37;5.83;;;5.43;;
37777;SDS011;23615;51.506;7.678;2023-05-14T02:24:02;6.27;;;5.77;;
37777;SDS011;23615;51.506;7.678;2023-05-14T02:26:27;7.50;;;6.90;;
37777;SDS011;23615;51.506;7.678;2023-05-14T02:28:53;7.20;;;6.60;;
37777;SDS011;23615;51.506;7.678;2023-05-14T02:31:18;7.13;;;6.53;;
37777;SDS011;23615;51.506;7.678;2023-05-14T02:33:43;7.07;;;6.47;;
37777;SDS011;23615;51.506;7.678;2023-05-14T02:36:09;6.57;;;5.97;;
37777;SDS011;23615;51.506;7.678;2023-05-14T02:38:34;8.73;;;7.93;;
37777;SDS011;23615;51.506;7.678;2023-05-14T02:40:59;8.98;;;8.18;;
37777;SDS011;23615;51.506;7.678;2023-05-14T02:43:25;7.33;;;6.73;;
37777;SDS011;23615;51.506;7.678;2023-05-14T02:45:50;6.97;;;6.40;;
37777;SDS011;23615;51.506;7.678;2023-05-14T02:48:15;6.23;;;5.53;;
37777;SDS011;23615;51.506;7.678;2023-05-14T02:50:40;6.20;;;5.43;;
37777;SDS011;23615;51.506;7.678;2023-05-14T02:53:06;7.13;;;6.43;;
37777;SDS011;23615;51.506;7.678;2023-05-14T02:55:32;6.53;;;5.93;;
37777;SDS011;23615;51.506;7.678;2023-05-14T02:57:58;6.22;;;5.72;;
37777;SDS011;23615;51.506;7.678;2023-05-14T03:00:23;6.20;;;5.70;;
37777;SDS011;23615;51.506;7.678;2023-05-14T03:02:48;5.22;;;4.82;;
37777;SDS011;23615;51.506;7.678;2023-05-14T03:05:14;5.82;;;5.32;;
37777;SDS011;23615;51.506;7.678;2023-05-14T03:07:39;5.67;;;5.27;;
37777;SDS011;23615;51.506;7.678;2023-05-14T03:10:04;6.27;;;5.77;;
37777;SDS011;23615;51.506;7.678;2023-05-14T03:12:30;6.63;;;6.03;;
37777;SDS011;23615;51.506;7.678;2023-05-14T03:14:55;6.47;;;5.97;;
37777;SDS011;23615;51.506;7.678;2023-05-14T03:17:21;7.23;;;6.53;;
37777;SDS011;23615;51.506;7.678;2023-05-14T03:19:46;6.40;;;5.80;;
37777;SDS011;23615;51.506;7.678;2023-05-14T03:22:11;6.07;;;5.57;;
37777;SDS011;23615;51.506;7.678;2023-05-14T03:24:37;5.37;;;4.97;;
37777;SDS011;23615;51.506;7.678;2023-05-14T03:27:04;6.20;;;5.70;;
37777;SDS011;23615;51.506;7.678;2023-05-14T03:29:29;4.83;;;4.53;;
37777;SDS011;23615;51.506;7.678;2023-05-14T03:31:54;5.97;;;5.37;;
37777;SDS011;23615;51.506;7.678;2023-05-14T03:34:20;6.30;;;5.80;;
37777;SDS011;23615;51.506;7.678;2023-05-14T03:36:45;5.60;;;5.10;;
37777;SDS011;23615;51.506;7.678;2023-05-14T03:39:10;4.60;;;4.30;;
37777;SDS011;23615;51.506;7.678;2023-05-14T03:41:39;5.05;;;4.57;;
37777;SDS011;23615;51.506;7.678;2023-05-14T03:44:04;6.50;;;5.70;;
37777;SDS011;23615;51.506;7.678;2023-05-14T03:46:30;6.78;;;6.18;;
37777;SDS011;23615;51.506;7.678;2023-05-14T03:48:55;6.10;;;5.60;;
37777;SDS011;23615;51.506;7.678;2023-05-14T03:51:20;6.37;;;5.87;;
37777;SDS011;23615;51.506;7.678;2023-05-14T03:53:46;6.20;;;5.70;;
37777;SDS011;23615;51.506;7.678;2023-05-14T03:56:11;6.20;;;5.70;;
37777;SDS011;23615;51.506;7.678;2023-05-14T03:58:36;7.40;;;6.70;;
37777;SDS011;23615;51.506;7.678;2023-05-14T04:01:01;6.40;;;5.90;;
37777;SDS011;23615;51.506;7.678;2023-05-14T04:03:27;6.87;;;6.27;;
37777;SDS011;23615;51.506;7.678;2023-05-14T04:05:52;6.27;;;5.77;;
37777;SDS011;23615;51.506;7.678;2023-05-14T04:08:17;6.50;;;6.00;;
37777;SDS011;23615;51.506;7.678;2023-05-14T04:10:42;6.03;;;5.43;;
37777;SDS011;23615;51.506;7.678;2023-05-14T04:13:08;5.40;;;5.00;;
37777;SDS011;23615;51.506;7.678;2023-05-14T04:15:33;5.60;;;5.20;;
37777;SDS011;23615;51.506;7.678;2023-05-14T04:17:59;6.22;;;5.72;;
37777;SDS011;23615;51.506;7.678;2023-05-14T04:20:25;5.88;;;5.38;;
37777;SDS011;23615;51.506;7.678;2023-05-14T04:22:50;5.80;;;5.30;;
37777;SDS011;23615;51.506;7.678;2023-05-14T04:25:16;6.73;;;6.13;;
37777;SDS011;23615;51.506;7.678;2023-05-14T04:27:42;5.22;;;4.82;;
37777;SDS011;23615;51.506;7.678;2023-05-14T04:30:07;5.07;;;4.67;;
37777;SDS011;23615;51.506;7.678;2023-05-14T04:32:33;4.60;;;4.20;;
37777;SDS011;23615;51.506;7.678;2023-05-14T04:34:59;4.65;;;4.25;;
37777;SDS011;23615;51.506;7.678;2023-05-14T04:37:24;4.30;;;4.00;;
37777;SDS011;23615;51.506;7.678;2023-05-14T04:39:50;5.03;;;4.63;;
37777;SDS011;23615;51.506;7.678;2023-05-14T04:42:15;5.53;;;5.13;;
37777;SDS011;23615;51.506;7.678;2023-05-14T04:44:40;5.40;;;4.90;;
37777;SDS011;23615;51.506;7.678;2023-05-14T04:47:06;5.40;;;4.90;;
37777;SDS011;23615;51.506;7.678;2023-05-14T04:49:31;5.22;;;4.72;;
37777;SDS011;23615;51.506;7.678;2023-05-14T04:51:57;4.15;;;3.85;;
37777;SDS011;23615;51.506;7.678;2023-05-14T04:54:22;4.30;;;4.00;;
37777;SDS011;23615;51.506;7.678;2023-05-14T04:56:48;6.90;;;6.30;;
37777;SDS011;23615;51.506;7.678;2023-05-14T04:59:16;6.00;;;5.40;;
37777;SDS011;23615;51.506;7.678;2023-05-14T05:01:41;6.67;;;6.00;;
37777;SDS011;23615;51.506;7.678;2023-05-14T05:04:06;5.60;;;5.20;;
37777;SDS011;23615;51.506;7.678;2023-05-14T05:06:31;5.97;;;5.47;;
37777;SDS011;23615;51.506;7.678;2023-05-14T05:08:57;5.30;;;4.90;;
37777;SDS011;23615;51.506;7.678;2023-05-14T05:11:22;5.38;;;4.82;;
37777;SDS011;23615;51.506;7.678;2023-05-14T05:13:47;5.80;;;5.30;;
37777;SDS011;23615;51.506;7.678;2023-05-14T05:16:12;5.90;;;5.40;;
37777;SDS011;23615;51.506;7.678;2023-05-14T05:18:38;5.60;;;5.20;;
37777;SDS011;23615;51.506;7.678;2023-05-14T05:21:04;6.07;;;5.57;;
37777;SDS011;23615;51.506;7.678;2023-05-14T05:23:29;5.93;;;5.33;;
37777;SDS011;23615;51.506;7.678;2023-05-14T05:25:54;5.47;;;4.97;;
37777;SDS011;23615;51.506;7.678;2023-05-14T05:28:20;5.00;;;4.60;;
37777;SDS011;23615;51.506;7.678;2023-05-14T05:30:45;4.80;;;4.40;;
37777;SDS011;23615;51.506;7.678;2023-05-14T05:33:10;6.87;;;5.97;;
37777;SDS011;23615;51.506;7.678;2023-05-14T05:35:36;4.43;;;4.13;;
37777;SDS011;23615;51.506;7.678;2023-05-14T05:38:02;4.07;;;3.77;;
37777;SDS011;23615;51.506;7.678;2023-05-14T05:40:27;4.33;;;3.93;;
37777;SDS011;23615;51.506;7.678;2023-05-14T05:42:52;4.07;;;3.77;;
37777;SDS011;23615;51.506;7.678;2023-05-14T05:45:18;4.47;;;4.07;;
37777;SDS011;23615;51.506;7.678;2023-05-14T05:47:43;5.00;;;4.50;;
37777;SDS011;23615;51.506;7.678;2023-05-14T05:50:08;4.80;;;4.40;;
37777;SDS011;23615;51.506;7.678;2023-05-14T05:52:35;4.57;;;4.28;;
37777;SDS011;23615;51.506;7.678;2023-05-14T05:55:00;4.97;;;4.60;;
37777;SDS011;23615;51.506;7.678;2023-05-14T05:57:25;4.27;;;3.87;;
37777;SDS011;23615;51.506;7.678;2023-05-14T05:59:51;3.80;;;3.50;;
37777;SDS011;23615;51.506;7.678;2023-05-14T06:02:16;4.23;;;3.83;;
37777;SDS011;23615;51.506;7.678;2023-05-14T06:04:41;4.60;;;4.20;;
37777;SDS011;23615;51.506;7.678;2023-05-14T06:07:07;3.37;;;3.07;;
37777;SDS011;23615;51.506;7.678;2023-05-14T06:09:32;3.60;;;3.30;;
37777;SDS011;23615;51.506;7.678;2023-05-14T06:11:57;3.37;;;3.07;;
37777;SDS011;23615;51.506;7.678;2023-05-14T06:14:22;4.23;;;3.93;;
37777;SDS011;23615;51.506;7.678;2023-05-14T06:16:48;4.33;;;4.03;;
37777;SDS011;23615;51.506;7.678;2023-05-14T06:19:13;4.20;;;3.90;;
37777;SDS011;23615;51.506;7.678;2023-05-14T06:21:38;4.27;;;3.93;;
37777;SDS011;23615;51.506;7.678;2023-05-14T06:24:04;4.30;;;3.90;;
37777;SDS011;23615;51.506;7.678;2023-05-14T06:26:29;3.78;;;3.50;;
37777;SDS011;23615;51.506;7.678;2023-05-14T06:28:55;3.60;;;3.40;;
37777;SDS011;23615;51.506;7.678;2023-05-14T06:31:20;3.43;;;3.13;;
37777;SDS011;23615;51.506;7.678;2023-05-14T06:33:45;4.23;;;3.93;;
37777;SDS011;23615;51.506;7.678;2023-05-14T06:36:10;3.67;;;3.37;;
37777;SDS011;23615;51.506;7.678;2023-05-14T06:38:36;4.10;;;3.80;;
37777;SDS011;23615;51.506;7.678;2023-05-14T06:41:01;4.30;;;4.00;;
37777;SDS011;23615;51.506;7.678;2023-05-14T06:43:27;4.70;;;4.30;;
37777;SDS011;23615;51.506;7.678;2023-05-14T06:45:52;4.10;;;3.70;;
37777;SDS011;23615;51.506;7.678;2023-05-14T06:48:18;5.20;;;4.65;;
37777;SDS011;23615;51.506;7.678;2023-05-14T06:50:44;4.72;;;4.32;;
37777;SDS011;23615;51.506;7.678;2023-05-14T06:53:10;3.72;;;3.53;;
37777;SDS011;23615;51.506;7.678;2023-05-14T06:55:36;3.53;;;3.28;;
37777;SDS011;23615;51.506;7.678;2023-05-14T06:58:01;4.30;;;4.00;;
37777;SDS011;23615;51.506;7.678;2023-05-14T07:00:28;5.35;;;4.85;;
37777;SDS011;23615;51.506;7.678;2023-05-14T07:02:54;5.57;;;4.80;;
37777;SDS011;23615;51.506;7.678;2023-05-14T07:05:19;5.40;;;4.57;;
37777;SDS011;23615;51.506;7.678;2023-05-14T07:07:45;5.13;;;3.90;;
37777;SDS011;23615;51.506;7.678;2023-05-14T07:10:10;4.37;;;4.00;;
37777;SDS011;23615;51.506;7.678;2023-05-14T07:12:35;4.22;;;3.92;;
37777;SDS011;23615;51.506;7.678;2023-05-14T07:15:01;3.38;;;3.17;;
37777;SDS011;23615;51.506;7.678;2023-05-14T07:17:26;4.47;;;4.07;;
37777;SDS011;23615;51.506;7.678;2023-05-14T07:19:51;3.63;;;3.37;;
37777;SDS011;23615;51.506;7.678;2023-05-14T07:22:19;3.92;;;3.63;;
37777;SDS011;23615;51.506;7.678;2023-05-14T07:24:44;4.80;;;3.93;;
37777;SDS011;23615;51.506;7.678;2023-05-14T07:27:10;2.93;;;2.73;;
37777;SDS011;23615;51.506;7.678;2023-05-14T07:29:36;3.40;;;3.20;;
37777;SDS011;23615;51.506;7.678;2023-05-14T07:32:01;3.13;;;2.92;;
37777;SDS011;23615;51.506;7.678;2023-05-14T07:34:27;2.63;;;2.43;;
37777;SDS011;23615;51.506;7.678;2023-05-14T07:36:52;4.00;;;3.53;;
37777;SDS011;23615;51.506;7.678;2023-05-14T07:39:17;3.00;;;2.80;;
37777;SDS011;23615;51.506;7.678;2023-05-14T07:41:43;2.57;;;2.47;;
37777;SDS011;23615;51.506;7.678;2023-05-14T07:44:08;1.90;;;1.80;;
37777;SDS011;23615;51.506;7.678;2023-05-14T07:46:35;2.83;;;2.53;;
37777;SDS011;23615;51.506;7.678;2023-05-14T07:49:00;2.53;;;2.33;;
37777;SDS011;23615;51.506;7.678;2023-05-14T07:51:25;2.43;;;2.13;;
37777;SDS011;23615;51.506;7.678;2023-05-14T07:53:52;2.80;;;2.13;;
37777;SDS011;23615;51.506;7.678;2023-05-14T07:56:19;1.35;;;1.25;;
37777;SDS011;23615;51.506;7.678;2023-05-14T07:58:44;1.33;;;1.23;;
37777;SDS011;23615;51.506;7.678;2023-05-14T08:01:10;1.23;;;1.13;;
37777;SDS011;23615;51.506;7.678;2023-05-14T08:03:36;1.42;;;1.33;;
37777;SDS011;23615;51.506;7.678;2023-05-14T08:06:01;1.20;;;1.20;;
37777;SDS011;23615;51.506;7.678;2023-05-14T08:08:28;1.67;;;1.58;;
37777;SDS011;23615;51.506;7.678;2023-05-14T08:10:53;1.50;;;1.40;;
37777;SDS011;23615;51.506;7.678;2023-05-14T08:13:18;1.40;;;1.30;;
37777;SDS011;23615;51.506;7.678;2023-05-14T08:15:44;1.30;;;1.20;;
37777;SDS011;23615;51.506;7.678;2023-05-14T08:18:09;1.20;;;1.10;;
37777;SDS011;23615;51.506;7.678;2023-05-14T08:20:34;0.97;;;0.97;;
37777;SDS011;23615;51.506;7.678;2023-05-14T08:23:00;1.30;;;1.20;;
37777;SDS011;23615;51.506;7.678;2023-05-14T08:25:25;1.30;;;1.00;;
37777;SDS011;23615;51.506;7.678;2023-05-14T08:27:50;2.00;;;1.80;;
37777;SDS011;23615;51.506;7.678;2023-05-14T08:30:17;1.13;;;1.13;;
37777;SDS011;23615;51.506;7.678;2023-05-14T08:32:42;2.40;;;2.30;;
37777;SDS011;23615;51.506;7.678;2023-05-14T08:35:08;3.07;;;2.87;;
37777;SDS011;23615;51.506;7.678;2023-05-14T08:37:33;3.27;;;3.03;;
37777;SDS011;23615;51.506;7.678;2023-05-14T08:39:59;2.90;;;2.70;;
37777;SDS011;23615;51.506;7.678;2023-05-14T08:42:24;2.73;;;2.53;;
37777;SDS011;23615;51.506;7.678;2023-05-14T08:44:59;2.70;;;2.50;;
37777;SDS011;23615;51.506;7.678;2023-05-14T08:47:29;1.70;;;1.60;;
37777;SDS011;23615;51.506;7.678;2023-05-14T08:50:00;2.70;;;2.50;;
37777;SDS011;23615;51.506;7.678;2023-05-14T08:52:30;2.17;;;1.70;;
37777;SDS011;23615;51.506;7.678;2023-05-14T08:55:00;2.22;;;2.03;;
37777;SDS011;23615;51.506;7.678;2023-05-14T08:57:29;1.75;;;1.65;;
37777;SDS011;23615;51.506;7.678;2023-05-14T08:59:56;1.30;;;1.20;;
37777;SDS011;23615;51.506;7.678;2023-05-14T09:02:23;1.95;;;1.83;;
37777;SDS011;23615;51.506;7.678;2023-05-14T09:04:54;2.95;;;2.75;;
37777;SDS011;23615;51.506;7.678;2023-05-14T09:07:21;3.20;;;2.97;;
37777;SDS011;23615;51.506;7.678;2023-05-14T09:09:46;4.47;;;2.70;;
37777;SDS011;23615;51.506;7.678;2023-05-14T09:12:12;3.60;;;2.50;;
37777;SDS011;23615;51.506;7.678;2023-05-14T09:14:37;1.90;;;1.80;;
37777;SDS011;23615;51.506;7.678;2023-05-14T09:17:02;3.03;;;2.80;;
37777;SDS011;23615;51.506;7.678;2023-05-14T09:19:28;3.35;;;2.97;;
37777;SDS011;23615;51.506;7.678;2023-05-14T09:21:55;2.00;;;1.90;;
37777;SDS011;23615;51.506;7.678;2023-05-14T09:24:22;2.58;;;2.40;;
37777;SDS011;23615;51.506;7.678;2023-05-14T09:26:51;4.20;;;2.88;;
37777;SDS011;23615;51.506;7.678;2023-05-14T09:29:18;2.33;;;2.13;;
37777;SDS011;23615;51.506;7.678;2023-05-14T09:31:43;3.17;;;2.30;;
37777;SDS011;23615;51.506;7.678;2023-05-14T09:34:09;2.53;;;2.33;;
37777;SDS011;23615;51.506;7.678;2023-05-14T09:36:35;2.13;;;1.97;;
37777;SDS011;23615;51.506;7.678;2023-05-14T09:39:02;2.67;;;2.33;;
37777;SDS011;23615;51.506;7.678;2023-05-14T09:41:28;1.93;;;1.80;;
37777;SDS011;23615;51.506;7.678;2023-05-14T09:43:53;2.20;;;2.00;;
37777;SDS011;23615;51.506;7.678;2023-05-14T09:46:20;2.20;;;2.10;;
37777;SDS011;23615;51.506;7.678;2023-05-14T09:48:46;1.85;;;1.60;;
37777;SDS011;23615;51.506;7.678;2023-05-14T09:51:12;1.90;;;1.80;;
37777;SDS011;23615;51.506;7.678;2023-05-14T09:53:37;1.85;;;1.75;;
37777;SDS011;23615;51.506;7.678;2023-05-14T09:56:05;2.00;;;1.90;;
37777;SDS011;23615;51.506;7.678;2023-05-14T09:58:30;2.43;;;2.23;;
37777;SDS011;23615;51.506;7.678;2023-05-14T10:00:56;2.90;;;2.23;;
37777;SDS011;23615;51.506;7.678;2023-05-14T10:03:21;2.00;;;1.90;;
37777;SDS011;23615;51.506;7.678;2023-05-14T10:05:50;2.13;;;1.92;;
37777;SDS011;23615;51.506;7.678;2023-05-14T10:08:49;1.60;;;1.50;;
37777;SDS011;23615;51.506;7.678;2023-05-14T10:11:17;1.70;;;1.27;;
37777;SDS011;23615;51.506;7.678;2023-05-14T10:13:51;2.00;;;1.55;;
37777;SDS011;23615;51.506;7.678;2023-05-14T10:16:26;2.00;;;1.60;;
37777;SDS011;23615;51.506;7.678;2023-05-14T10:18:57;1.63;;;1.52;;
37777;SDS011;23615;51.506;7.678;2023-05-14T10:21:28;1.83;;;1.73;;
37777;SDS011;23615;51.506;7.678;2023-05-14T10:23:57;2.00;;;1.58;;
37777;SDS011;23615;51.506;7.678;2023-05-14T10:26:23;1.80;;;1.70;;
37777;SDS011;23615;51.506;7.678;2023-05-14T10:28:49;1.63;;;1.52;;
37777;SDS011;23615;51.506;7.678;2023-05-14T10:31:14;2.22;;;2.03;;
37777;SDS011;23615;51.506;7.678;2023-05-14T10:33:46;1.67;;;1.57;;
37777;SDS011;23615;51.506;7.678;2023-05-14T10:36:14;1.40;;;1.30;;
37777;SDS011;23615;51.506;7.678;2023-05-14T10:38:40;1.60;;;1.50;;
37777;SDS011;23615;51.506;7.678;2023-05-14T10:41:12;1.03;;;1.03;;
37777;SDS011;23615;51.506;7.678;2023-05-14T10:43:40;1.50;;;1.40;;
37777;SDS011;23615;51.506;7.678;2023-05-14T10:46:06;0.82;;;0.82;;
37777;SDS011;23615;51.506;7.678;2023-05-14T10:48:32;1.20;;;0.90;;
37777;SDS011;23615;51.506;7.678;2023-05-14T10:50:58;1.27;;;1.17;;
37777;SDS011;23615;51.506;7.678;2023-05-14T10:53:30;1.25;;;1.15;;
37777;SDS011;23615;51.506;7.678;2023-05-14T10:56:00;1.60;;;1.47;;
37777;SDS011;23615;51.506;7.678;2023-05-14T10:58:29;1.17;;;1.10;;
37777;SDS011;23615;51.506;7.678;2023-05-14T11:00:57;1.70;;;1.60;;
37777;SDS011;23615;51.506;7.678;2023-05-14T11:03:23;0.80;;;0.80;;
37777;SDS011;23615;51.506;7.678;2023-05-14T11:05:53;1.60;;;0.87;;
37777;SDS011;23615;51.506;7.678;2023-05-14T11:08:19;1.10;;;1.00;;
37777;SDS011;23615;51.506;7.678;2023-05-14T11:10:46;1.30;;;1.20;;
37777;SDS011;23615;51.506;7.678;2023-05-14T11:13:13;0.70;;;0.70;;
37777;SDS011;23615;51.506;7.678;2023-05-14T11:15:41;1.08;;;0.93;;
37777;SDS011;23615;51.506;7.678;2023-05-14T11:18:11;0.80;;;0.70;;
37777;SDS011;23615;51.506;7.678;2023-05-14T11:20:36;1.27;;;1.17;;
37777;SDS011;23615;51.506;7.678;2023-05-14T11:23:02;1.30;;;1.00;;
37777;SDS011;23615;51.506;7.678;2023-05-14T11:25:27;1.30;;;1.00;;
37777;SDS011;23615;51.506;7.678;2023-05-14T11:27:52;0.80;;;0.80;;
37777;SDS011;23615;51.506;7.678;2023-05-14T11:30:22;0.52;;;0.52;;
37777;SDS011;23615;51.506;7.678;2023-05-14T11:32:47;0.40;;;0.40;;
37777;SDS011;23615;51.506;7.678;2023-05-14T11:35:14;0.60;;;0.60;;
37777;SDS011;23615;51.506;7.678;2023-05-14T11:37:40;0.77;;;0.70;;
37777;SDS011;23615;51.506;7.678;2023-05-14T11:40:07;0.73;;;0.70;;
37777;SDS011;23615;51.506;7.678;2023-05-14T11:42:37;0.70;;;0.70;;
37777;SDS011;23615;51.506;7.678;2023-05-14T11:45:03;0.73;;;0.70;;
37777;SDS011;23615;51.506;7.678;2023-05-14T11:47:29;0.70;;;0.70;;
37777;SDS011;23615;51.506;7.678;2023-05-14T11:49:55;0.70;;;0.70;;
37777;SDS011;23615;51.506;7.678;2023-05-14T11:52:20;0.70;;;0.70;;
37777;SDS011;23615;51.506;7.678;2023-05-14T11:54:46;1.53;;;0.43;;
37777;SDS011;23615;51.506;7.678;2023-05-14T11:57:15;0.50;;;0.50;;
37777;SDS011;23615;51.506;7.678;2023-05-14T11:59:42;0.47;;;0.40;;
37777;SDS011;23615;51.506;7.678;2023-05-14T12:02:08;0.40;;;0.40;;
37777;SDS011;23615;51.506;7.678;2023-05-14T12:04:35;1.30;;;0.30;;
37777;SDS011;23615;51.506;7.678;2023-05-14T12:07:06;0.30;;;0.30;;
37777;SDS011;23615;51.506;7.678;2023-05-14T12:09:39;0.60;;;0.30;;
37777;SDS011;23615;51.506;7.678;2023-05-14T12:12:13;0.27;;;0.27;;
37777;SDS011;23615;51.506;7.678;2023-05-14T12:14:41;0.30;;;0.25;;
37777;SDS011;23615;51.506;7.678;2023-05-14T12:17:25;0.40;;;0.40;;
37777;SDS011;23615;51.506;7.678;2023-05-14T12:19:51;0.40;;;0.20;;
37777;SDS011;23615;51.506;7.678;2023-05-14T12:22:21;0.30;;;0.20;;
37777;SDS011;23615;51.506;7.678;2023-05-14T12:24:56;0.32;;;0.32;;
37777;SDS011;23615;51.506;7.678;2023-05-14T12:27:23;0.40;;;0.30;;
37777;SDS011;23615;51.506;7.678;2023-05-14T12:29:50;0.50;;;0.20;;
37777;SDS011;23615;51.506;7.678;2023-05-14T12:32:24;1.20;;;0.40;;
37777;SDS011;23615;51.506;7.678;2023-05-14T12:34:52;0.20;;;0.15;;
37777;SDS011;23615;51.506;7.678;2023-05-14T12:37:17;0.20;;;0.20;;
37777;SDS011;23615;51.506;7.678;2023-05-14T12:39:43;0.50;;;0.20;;
37777;SDS011;23615;51.506;7.678;2023-05-14T12:42:08;0.20;;;0.20;;
37777;SDS011;23615;51.506;7.678;2023-05-14T12:44:33;0.70;;;0.30;;
37777;SDS011;23615;51.506;7.678;2023-05-14T12:46:58;0.50;;;0.30;;
37777;SDS011;23615;51.506;7.678;2023-05-14T12:49:23;0.40;;;0.40;;
37777;SDS011;23615;51.506;7.678;2023-05-14T12:51:49;0.20;;;0.20;;
37777;SDS011;23615;51.506;7.678;2023-05-14T12:54:14;0.60;;;0.40;;
37777;SDS011;23615;51.506;7.678;2023-05-14T12:56:40;0.20;;;0.20;;
37777;SDS011;23615;51.506;7.678;2023-05-14T12:59:05;0.30;;;0.30;;
37777;SDS011;23615;51.506;7.678;2023-05-14T13:01:30;0.30;;;0.30;;
37777;SDS011;23615;51.506;7.678;2023-05-14T13:03:56;0.90;;;0.40;;
37777;SDS011;23615;51.506;7.678;2023-05-14T13:06:22;0.30;;;0.30;;
37777;SDS011;23615;51.506;7.678;2023-05-14T13:08:48;0.60;;;0.30;;
37777;SDS011;23615;51.506;7.678;2023-05-14T13:11:13;0.30;;;0.30;;
37777;SDS011;23615;51.506;7.678;2023-05-14T13:13:38;0.40;;;0.30;;
37777;SDS011;23615;51.506;7.678;2023-05-14T13:16:04;0.40;;;0.40;;
37777;SDS011;23615;51.506;7.678;2023-05-14T13:18:29;0.60;;;0.30;;
37777;SDS011;23615;51.506;7.678;2023-05-14T13:20:54;0.20;;;0.20;;
37777;SDS011;23615;51.506;7.678;2023-05-14T13:23:20;0.30;;;0.30;;
37777;SDS011;23615;51.506;7.678;2023-05-14T13:25:45;0.20;;;0.20;;
37777;SDS011;23615;51.506;7.678;2023-05-14T13:28:10;0.50;;;0.30;;
37777;SDS011;23615;51.506;7.678;2023-05-14T13:30:36;0.60;;;0.30;;
37777;SDS011;23615;51.506;7.678;2023-05-14T13:33:02;0.40;;;0.40;;
37777;SDS011;23615;51.506;7.678;2023-05-14T13:35:27;0.40;;;0.40;;
37777;SDS011;23615;51.506;7.678;2023-05-14T13:37:52;1.05;;;0.30;;
37777;SDS011;23615;51.506;7.678;2023-05-14T13:40:18;0.27;;;0.27;;
37777;SDS011;23615;51.506;7.678;2023-05-14T13:42:43;0.30;;;0.30;;
37777;SDS011;23615;51.506;7.678;2023-05-14T13:45:08;0.40;;;0.30;;
37777;SDS011;23615;51.506;7.678;2023-05-14T13:47:35;0.40;;;0.30;;
37777;SDS011;23615;51.506;7.678;2023-05-14T13:50:00;0.30;;;0.30;;
37777;SDS011;23615;51.506;7.678;2023-05-14T13:52:26;0.50;;;0.40;;
37777;SDS011;23615;51.506;7.678;2023-05-14T13:54:51;0.40;;;0.30;;
37777;SDS011;23615;51.506;7.678;2023-05-14T13:57:17;1.00;;;0.30;;
37777;SDS011;23615;51.506;7.678;2023-05-14T13:59:42;0.20;;;0.20;;
37777;SDS011;23615;51.506;7.678;2023-05-14T14:02:07;0.30;;;0.20;;
37777;SDS011;23615;51.506;7.678;2023-05-14T14:04:33;0.30;;;0.30;;
37777;SDS011;23615;51.506;7.678;2023-05-14T14:06:58;0.40;;;0.30;;
37777;SDS011;23615;51.506;7.678;2023-05-14T14:09:24;0.20;;;0.20;;
37777;SDS011;23615;51.506;7.678;2023-05-14T14:11:49;0.37;;;0.37;;
37777;SDS011;23615;51.506;7.678;2023-05-14T14:14:15;0.30;;;0.28;;
37777;SDS011;23615;51.506;7.678;2023-05-14T14:16:41;0.20;;;0.20;;
37777;SDS011;23615;51.506;7.678;2023-05-14T14:19:06;0.20;;;0.20;;
37777;SDS011;23615;51.506;7.678;2023-05-14T14:21:31;0.30;;;0.30;;
37777;SDS011;23615;51.506;7.678;2023-05-14T14:23:58;0.30;;;0.30;;
37777;SDS011;23615;51.506;7.678;2023-05-14T14:26:23;0.20;;;0.20;;
37777;SDS011;23615;51.506;7.678;2023-05-14T14:28:48;0.50;;;0.20;;
37777;SDS011;23615;51.506;7.678;2023-05-14T14:31:14;0.47;;;0.47;;
37777;SDS011;23615;51.506;7.678;2023-05-14T14:33:40;1.20;;;0.20;;
37777;SDS011;23615;51.506;7.678;2023-05-14T14:36:05;0.30;;;0.30;;
37777;SDS011;23615;51.506;7.678;2023-05-14T14:38:31;0.20;;;0.20;;
37777;SDS011;23615;51.506;7.678;2023-05-14T14:40:56;0.60;;;0.25;;
37777;SDS011;23615;51.506;7.678;2023-05-14T14:43:22;0.80;;;0.20;;
37777;SDS011;23615;51.506;7.678;2023-05-14T14:45:48;0.27;;;0.23;;
37777;SDS011;23615;51.506;7.678;2023-05-14T14:48:29;1.07;;;0.30;;